sensor_id;sensor_type;location;lat;lon;timestamp;pressure;altitude;pressure_sealevel;temperature;humidity
43663;BME280;74813;56.104;40.358;2024-03-08T00:02:31;99725.00;;;-5.29;68.43
43663;BME280;74813;56.104;40.358;2024-03-08T00:05:04;99727.44;;;-5.42;68.61
43663;BME280;74813;56.104;40.358;2024-03-08T00:07:38;99717.88;;;-5.22;68.24
43663;BME280;74813;56.104;40.358;2024-03-08T00:10:11;99717.88;;;-5.22;68.29
43663;BME280;74813;56.104;40.358;2024-03-08T00:12:44;99715.66;;;-5.03;67.77
43663;BME280;74813;56.104;40.358;2024-03-08T00:15:17;99714.47;;;-5.15;67.65
43663;BME280;74813;56.104;40.358;2024-03-08T00:17:49;99716.59;;;-5.11;67.83
43663;BME280;74813;56.104;40.358;2024-03-08T00:20:22;99729.38;;;-4.98;67.62
43663;BME280;74813;56.104;40.358;2024-03-08T00:22:54;99708.91;;;-5.14;67.62
43663;BME280;74813;56.104;40.358;2024-03-08T00:25:27;99714.56;;;-5.24;68.14
43663;BME280;74813;56.104;40.358;2024-03-08T00:27:59;99716.59;;;-5.64;69.01
43663;BME280;74813;56.104;40.358;2024-03-08T00:30:31;99717.88;;;-5.36;68.51
43663;BME280;74813;56.104;40.358;2024-03-08T00:33:04;99713.59;;;-5.46;68.78
43663;BME280;74813;56.104;40.358;2024-03-08T00:35:36;99705.06;;;-5.34;68.59
43663;BME280;74813;56.104;40.358;2024-03-08T00:38:09;99711.06;;;-5.47;68.89
43663;BME280;74813;56.104;40.358;2024-03-08T00:40:41;99701.28;;;-5.40;68.35
43663;BME280;74813;56.104;40.358;2024-03-08T00:43:13;99711.28;;;-5.49;68.65
43663;BME280;74813;56.104;40.358;2024-03-08T00:45:46;99707.38;;;-5.46;68.77
43663;BME280;74813;56.104;40.358;2024-03-08T00:48:18;99706.41;;;-5.68;69.59
43663;BME280;74813;56.104;40.358;2024-03-08T00:50:50;99706.56;;;-5.70;69.79
43663;BME280;74813;56.104;40.358;2024-03-08T00:53:23;99698.25;;;-5.75;69.80
43663;BME280;74813;56.104;40.358;2024-03-08T00:55:55;99696.75;;;-5.77;69.91
43663;BME280;74813;56.104;40.358;2024-03-08T00:58:27;99695.03;;;-5.70;69.85
43663;BME280;74813;56.104;40.358;2024-03-08T01:01:00;99691.22;;;-5.76;70.05
43663;BME280;74813;56.104;40.358;2024-03-08T01:03:32;99688.47;;;-5.68;69.75
43663;BME280;74813;56.104;40.358;2024-03-08T01:06:04;99687.00;;;-5.55;69.37
43663;BME280;74813;56.104;40.358;2024-03-08T01:08:37;99689.66;;;-5.70;69.29
43663;BME280;74813;56.104;40.358;2024-03-08T01:11:10;99693.34;;;-5.71;69.76
43663;BME280;74813;56.104;40.358;2024-03-08T01:13:42;99673.50;;;-5.47;69.13
43663;BME280;74813;56.104;40.358;2024-03-08T01:16:15;99686.19;;;-5.79;69.37
43663;BME280;74813;56.104;40.358;2024-03-08T01:18:47;99669.34;;;-6.02;69.64
43663;BME280;74813;56.104;40.358;2024-03-08T01:21:20;99665.84;;;-6.03;69.90
43663;BME280;74813;56.104;40.358;2024-03-08T01:23:52;99658.81;;;-5.89;69.84
43663;BME280;74813;56.104;40.358;2024-03-08T01:26:24;99662.34;;;-5.74;69.31
43663;BME280;74813;56.104;40.358;2024-03-08T01:28:57;99651.34;;;-5.79;69.43
43663;BME280;74813;56.104;40.358;2024-03-08T01:31:30;99650.88;;;-5.97;70.14
43663;BME280;74813;56.104;40.358;2024-03-08T01:34:02;99642.84;;;-5.82;69.66
43663;BME280;74813;56.104;40.358;2024-03-08T01:36:35;99645.88;;;-6.00;70.45
43663;BME280;74813;56.104;40.358;2024-03-08T01:39:07;99647.78;;;-6.09;70.30
43663;BME280;74813;56.104;40.358;2024-03-08T01:41:40;99651.06;;;-6.22;70.63
43663;BME280;74813;56.104;40.358;2024-03-08T01:44:12;99636.34;;;-6.26;70.67
43663;BME280;74813;56.104;40.358;2024-03-08T01:46:45;99631.44;;;-6.45;71.21
43663;BME280;74813;56.104;40.358;2024-03-08T01:49:18;99642.19;;;-6.22;70.97
43663;BME280;74813;56.104;40.358;2024-03-08T01:51:51;99635.47;;;-6.41;71.04
43663;BME280;74813;56.104;40.358;2024-03-08T01:54:23;99628.53;;;-6.36;71.26
43663;BME280;74813;56.104;40.358;2024-03-08T01:56:56;99610.41;;;-6.49;71.29
43663;BME280;74813;56.104;40.358;2024-03-08T01:59:29;99618.63;;;-6.50;71.57
43663;BME280;74813;56.104;40.358;2024-03-08T02:02:02;99612.91;;;-6.78;72.45
43663;BME280;74813;56.104;40.358;2024-03-08T02:04:36;99612.19;;;-6.64;72.26
43663;BME280;74813;56.104;40.358;2024-03-08T02:07:09;99619.91;;;-6.69;72.22
43663;BME280;74813;56.104;40.358;2024-03-08T02:09:42;99604.09;;;-6.56;72.29
43663;BME280;74813;56.104;40.358;2024-03-08T02:12:14;99609.63;;;-6.57;72.15
43663;BME280;74813;56.104;40.358;2024-03-08T02:14:47;99604.34;;;-6.42;71.95
43663;BME280;74813;56.104;40.358;2024-03-08T02:17:20;99604.56;;;-6.52;72.08
43663;BME280;74813;56.104;40.358;2024-03-08T02:19:52;99614.25;;;-6.28;71.81
43663;BME280;74813;56.104;40.358;2024-03-08T02:22:25;99602.06;;;-6.31;71.55
43663;BME280;74813;56.104;40.358;2024-03-08T02:25:00;99595.06;;;-6.55;72.39
43663;BME280;74813;56.104;40.358;2024-03-08T02:27:32;99597.91;;;-6.56;72.27
43663;BME280;74813;56.104;40.358;2024-03-08T02:30:05;99587.41;;;-6.66;73.23
43663;BME280;74813;56.104;40.358;2024-03-08T02:32:38;99576.03;;;-6.68;72.89
43663;BME280;74813;56.104;40.358;2024-03-08T02:35:10;99567.03;;;-6.67;72.92
43663;BME280;74813;56.104;40.358;2024-03-08T02:37:43;99568.28;;;-6.55;72.95
43663;BME280;74813;56.104;40.358;2024-03-08T02:40:15;99568.13;;;-6.38;72.42
43663;BME280;74813;56.104;40.358;2024-03-08T02:42:47;99558.03;;;-6.51;72.79
43663;BME280;74813;56.104;40.358;2024-03-08T02:45:20;99552.56;;;-6.35;72.60
43663;BME280;74813;56.104;40.358;2024-03-08T02:47:52;99551.94;;;-6.22;72.12
43663;BME280;74813;56.104;40.358;2024-03-08T02:50:24;99558.66;;;-6.03;71.66
43663;BME280;74813;56.104;40.358;2024-03-08T02:52:57;99546.50;;;-5.84;70.74
43663;BME280;74813;56.104;40.358;2024-03-08T02:55:29;99548.25;;;-5.91;70.78
43663;BME280;74813;56.104;40.358;2024-03-08T02:58:02;99546.44;;;-5.76;70.30
43663;BME280;74813;56.104;40.358;2024-03-08T03:00:38;99540.16;;;-6.36;72.11
43663;BME280;74813;56.104;40.358;2024-03-08T03:03:10;99538.13;;;-6.34;72.26
43663;BME280;74813;56.104;40.358;2024-03-08T03:05:43;99546.38;;;-6.35;72.36
43663;BME280;74813;56.104;40.358;2024-03-08T03:08:15;99540.66;;;-6.32;71.91
43663;BME280;74813;56.104;40.358;2024-03-08T03:10:47;99537.72;;;-6.45;73.14
43663;BME280;74813;56.104;40.358;2024-03-08T03:13:20;99532.91;;;-6.27;72.62
43663;BME280;74813;56.104;40.358;2024-03-08T03:15:52;99534.47;;;-6.33;72.78
43663;BME280;74813;56.104;40.358;2024-03-08T03:18:25;99521.75;;;-6.01;71.89
43663;BME280;74813;56.104;40.358;2024-03-08T03:20:57;99520.88;;;-6.31;72.48
43663;BME280;74813;56.104;40.358;2024-03-08T03:23:29;99505.91;;;-6.40;72.74
43663;BME280;74813;56.104;40.358;2024-03-08T03:26:02;99509.34;;;-6.32;73.07
43663;BME280;74813;56.104;40.358;2024-03-08T03:28:34;99501.00;;;-6.37;73.58
43663;BME280;74813;56.104;40.358;2024-03-08T03:31:07;99503.72;;;-6.22;72.99
43663;BME280;74813;56.104;40.358;2024-03-08T03:33:40;99495.78;;;-6.15;73.13
43663;BME280;74813;56.104;40.358;2024-03-08T03:36:12;99483.59;;;-6.18;73.24
43663;BME280;74813;56.104;40.358;2024-03-08T03:38:44;99494.59;;;-6.13;73.25
43663;BME280;74813;56.104;40.358;2024-03-08T03:41:17;99494.88;;;-6.08;73.18
43663;BME280;74813;56.104;40.358;2024-03-08T03:43:49;99495.59;;;-6.14;73.67
43663;BME280;74813;56.104;40.358;2024-03-08T03:46:21;99494.09;;;-5.87;72.58
43663;BME280;74813;56.104;40.358;2024-03-08T03:48:54;99484.84;;;-5.84;72.46
43663;BME280;74813;56.104;40.358;2024-03-08T03:51:26;99490.22;;;-5.69;72.35
43663;BME280;74813;56.104;40.358;2024-03-08T03:53:59;99492.72;;;-5.68;71.78
43663;BME280;74813;56.104;40.358;2024-03-08T03:56:31;99486.41;;;-5.45;71.12
43663;BME280;74813;56.104;40.358;2024-03-08T03:59:04;99482.31;;;-5.26;70.46
43663;BME280;74813;56.104;40.358;2024-03-08T04:01:36;99481.97;;;-5.53;70.92
43663;BME280;74813;56.104;40.358;2024-03-08T04:04:08;99474.25;;;-5.26;69.93
43663;BME280;74813;56.104;40.358;2024-03-08T04:06:41;99483.19;;;-5.70;70.96
43663;BME280;74813;56.104;40.358;2024-03-08T04:09:13;99486.84;;;-5.42;70.96
43663;BME280;74813;56.104;40.358;2024-03-08T04:11:45;99487.97;;;-5.36;70.94
43663;BME280;74813;56.104;40.358;2024-03-08T04:14:18;99485.75;;;-5.47;70.58
43663;BME280;74813;56.104;40.358;2024-03-08T04:16:50;99487.50;;;-5.40;70.42
43663;BME280;74813;56.104;40.358;2024-03-08T04:19:22;99470.56;;;-5.40;70.80
43663;BME280;74813;56.104;40.358;2024-03-08T04:21:55;99465.97;;;-5.46;70.32
43663;BME280;74813;56.104;40.358;2024-03-08T04:24:27;99472.53;;;-5.49;71.02
43663;BME280;74813;56.104;40.358;2024-03-08T04:27:00;99466.72;;;-5.52;70.92
43663;BME280;74813;56.104;40.358;2024-03-08T04:29:32;99454.78;;;-5.65;71.70
43663;BME280;74813;56.104;40.358;2024-03-08T04:32:06;99479.94;;;-5.51;72.29
43663;BME280;74813;56.104;40.358;2024-03-08T04:34:39;99480.41;;;-5.77;76.01
43663;BME280;74813;56.104;40.358;2024-03-08T04:37:11;99468.91;;;-5.41;76.58
43663;BME280;74813;56.104;40.358;2024-03-08T04:39:44;99458.50;;;-5.51;76.01
43663;BME280;74813;56.104;40.358;2024-03-08T04:42:16;99468.53;;;-5.38;75.22
43663;BME280;74813;56.104;40.358;2024-03-08T04:44:49;99464.91;;;-5.30;75.48
43663;BME280;74813;56.104;40.358;2024-03-08T04:47:21;99465.34;;;-5.27;74.48
43663;BME280;74813;56.104;40.358;2024-03-08T04:49:54;99464.56;;;-5.06;74.07
43663;BME280;74813;56.104;40.358;2024-03-08T04:52:26;99470.31;;;-5.09;73.68
43663;BME280;74813;56.104;40.358;2024-03-08T04:54:58;99466.06;;;-5.54;74.88
43663;BME280;74813;56.104;40.358;2024-03-08T04:57:31;99460.13;;;-5.50;74.92
43663;BME280;74813;56.104;40.358;2024-03-08T05:00:03;99455.53;;;-5.20;73.85
43663;BME280;74813;56.104;40.358;2024-03-08T05:02:37;99446.22;;;-5.02;73.67
43663;BME280;74813;56.104;40.358;2024-03-08T05:05:10;99452.22;;;-4.79;73.18
43663;BME280;74813;56.104;40.358;2024-03-08T05:07:42;99454.47;;;-5.04;73.29
43663;BME280;74813;56.104;40.358;2024-03-08T05:10:15;99452.16;;;-4.85;73.95
43663;BME280;74813;56.104;40.358;2024-03-08T05:12:47;99451.44;;;-4.72;72.37
43663;BME280;74813;56.104;40.358;2024-03-08T05:15:19;99446.75;;;-4.92;72.83
43663;BME280;74813;56.104;40.358;2024-03-08T05:17:52;99455.56;;;-4.77;72.25
43663;BME280;74813;56.104;40.358;2024-03-08T05:20:24;99443.63;;;-4.67;71.98
43663;BME280;74813;56.104;40.358;2024-03-08T05:22:57;99451.47;;;-4.16;71.14
43663;BME280;74813;56.104;40.358;2024-03-08T05:25:29;99449.41;;;-4.70;71.95
43663;BME280;74813;56.104;40.358;2024-03-08T05:28:01;99443.03;;;-4.69;72.32
43663;BME280;74813;56.104;40.358;2024-03-08T05:30:34;99443.63;;;-4.67;72.39
43663;BME280;74813;56.104;40.358;2024-03-08T05:33:06;99450.50;;;-4.65;72.90
43663;BME280;74813;56.104;40.358;2024-03-08T05:35:38;99443.69;;;-4.61;72.49
43663;BME280;74813;56.104;40.358;2024-03-08T05:38:11;99443.13;;;-4.78;72.87
43663;BME280;74813;56.104;40.358;2024-03-08T05:40:43;99441.06;;;-4.26;71.40
43663;BME280;74813;56.104;40.358;2024-03-08T05:43:16;99438.03;;;-4.16;71.28
43663;BME280;74813;56.104;40.358;2024-03-08T05:45:48;99430.34;;;-4.54;72.14
43663;BME280;74813;56.104;40.358;2024-03-08T05:48:20;99435.16;;;-4.71;72.67
43663;BME280;74813;56.104;40.358;2024-03-08T05:50:53;99431.22;;;-4.47;72.47
43663;BME280;74813;56.104;40.358;2024-03-08T05:53:25;99428.03;;;-4.57;72.90
43663;BME280;74813;56.104;40.358;2024-03-08T05:55:58;99427.66;;;-4.54;72.60
43663;BME280;74813;56.104;40.358;2024-03-08T05:58:31;99424.13;;;-4.26;71.84
43663;BME280;74813;56.104;40.358;2024-03-08T06:01:03;99424.31;;;-4.56;72.48
43663;BME280;74813;56.104;40.358;2024-03-08T06:03:35;99423.03;;;-4.60;72.86
43663;BME280;74813;56.104;40.358;2024-03-08T06:06:08;99425.22;;;-4.14;71.80
43663;BME280;74813;56.104;40.358;2024-03-08T06:08:41;99413.94;;;-4.03;71.52
43663;BME280;74813;56.104;40.358;2024-03-08T06:11:13;99415.63;;;-3.95;70.31
43663;BME280;74813;56.104;40.358;2024-03-08T06:13:46;99409.66;;;-4.25;71.61
43663;BME280;74813;56.104;40.358;2024-03-08T06:16:18;99422.13;;;-3.76;70.47
43663;BME280;74813;56.104;40.358;2024-03-08T06:18:51;99415.59;;;-4.02;71.33
43663;BME280;74813;56.104;40.358;2024-03-08T06:21:24;99416.13;;;-3.78;70.62
43663;BME280;74813;56.104;40.358;2024-03-08T06:23:56;99404.81;;;-3.54;69.83
43663;BME280;74813;56.104;40.358;2024-03-08T06:26:29;99414.50;;;-3.66;70.32
43663;BME280;74813;56.104;40.358;2024-03-08T06:29:01;99423.88;;;-3.97;71.29
43663;BME280;74813;56.104;40.358;2024-03-08T06:31:33;99418.34;;;-4.23;71.87
43663;BME280;74813;56.104;40.358;2024-03-08T06:34:06;99420.50;;;-4.40;72.72
43663;BME280;74813;56.104;40.358;2024-03-08T06:36:38;99422.47;;;-4.27;72.22
43663;BME280;74813;56.104;40.358;2024-03-08T06:39:11;99417.47;;;-3.96;71.96
43663;BME280;74813;56.104;40.358;2024-03-08T06:41:43;99422.31;;;-3.84;71.13
43663;BME280;74813;56.104;40.358;2024-03-08T06:44:15;99425.06;;;-4.06;71.65
43663;BME280;74813;56.104;40.358;2024-03-08T06:46:49;99421.75;;;-3.73;70.85
43663;BME280;74813;56.104;40.358;2024-03-08T06:49:21;99427.09;;;-3.80;71.10
43663;BME280;74813;56.104;40.358;2024-03-08T06:51:53;99411.50;;;-3.91;71.45
43663;BME280;74813;56.104;40.358;2024-03-08T06:54:26;99420.16;;;-3.96;71.15
43663;BME280;74813;56.104;40.358;2024-03-08T06:56:58;99416.13;;;-3.78;71.18
43663;BME280;74813;56.104;40.358;2024-03-08T06:59:31;99416.75;;;-3.76;71.24
43663;BME280;74813;56.104;40.358;2024-03-08T07:02:04;99416.72;;;-3.83;71.52
43663;BME280;74813;56.104;40.358;2024-03-08T07:04:37;99399.88;;;-4.05;72.87
43663;BME280;74813;56.104;40.358;2024-03-08T07:07:09;99410.09;;;-3.87;72.38
43663;BME280;74813;56.104;40.358;2024-03-08T07:09:45;99411.59;;;-3.78;71.83
43663;BME280;74813;56.104;40.358;2024-03-08T07:12:17;99393.72;;;-3.92;71.85
43663;BME280;74813;56.104;40.358;2024-03-08T07:14:49;99410.81;;;-3.65;71.88
43663;BME280;74813;56.104;40.358;2024-03-08T07:17:22;99401.81;;;-3.31;70.58
43663;BME280;74813;56.104;40.358;2024-03-08T07:19:54;99405.75;;;-3.20;69.79
43663;BME280;74813;56.104;40.358;2024-03-08T07:22:26;99406.28;;;-3.58;71.51
43663;BME280;74813;56.104;40.358;2024-03-08T07:24:59;99405.78;;;-3.75;72.45
43663;BME280;74813;56.104;40.358;2024-03-08T07:27:31;99407.47;;;-3.67;72.27
43663;BME280;74813;56.104;40.358;2024-03-08T07:30:04;99409.72;;;-3.16;71.69
43663;BME280;74813;56.104;40.358;2024-03-08T07:32:37;99398.25;;;-3.44;71.87
43663;BME280;74813;56.104;40.358;2024-03-08T07:35:10;99408.38;;;-3.53;72.25
43663;BME280;74813;56.104;40.358;2024-03-08T07:37:42;99402.28;;;-3.69;72.44
43663;BME280;74813;56.104;40.358;2024-03-08T07:40:15;99408.97;;;-3.58;73.40
43663;BME280;74813;56.104;40.358;2024-03-08T07:42:47;99399.41;;;-3.67;73.22
43663;BME280;74813;56.104;40.358;2024-03-08T07:45:19;99401.81;;;-3.31;72.25
43663;BME280;74813;56.104;40.358;2024-03-08T07:47:52;99397.28;;;-3.17;71.97
43663;BME280;74813;56.104;40.358;2024-03-08T07:50:24;99403.31;;;-3.01;71.46
43663;BME280;74813;56.104;40.358;2024-03-08T07:52:56;99396.09;;;-2.81;70.62
43663;BME280;74813;56.104;40.358;2024-03-08T07:55:29;99395.03;;;-2.80;71.12
43663;BME280;74813;56.104;40.358;2024-03-08T07:58:02;99399.81;;;-2.69;70.19
43663;BME280;74813;56.104;40.358;2024-03-08T08:00:34;99396.91;;;-2.61;69.60
43663;BME280;74813;56.104;40.358;2024-03-08T08:03:07;99391.94;;;-2.90;70.90
43663;BME280;74813;56.104;40.358;2024-03-08T08:05:39;99386.97;;;-2.73;70.44
43663;BME280;74813;56.104;40.358;2024-03-08T08:08:12;99385.31;;;-2.88;70.95
43663;BME280;74813;56.104;40.358;2024-03-08T08:10:44;99386.13;;;-2.67;70.49
43663;BME280;74813;56.104;40.358;2024-03-08T08:13:16;99387.38;;;-2.63;70.34
43663;BME280;74813;56.104;40.358;2024-03-08T08:15:49;99389.44;;;-2.65;70.21
43663;BME280;74813;56.104;40.358;2024-03-08T08:18:21;99384.25;;;-2.80;71.05
43663;BME280;74813;56.104;40.358;2024-03-08T08:20:53;99383.66;;;-2.69;70.08
43663;BME280;74813;56.104;40.358;2024-03-08T08:23:26;99381.56;;;-2.47;70.20
43663;BME280;74813;56.104;40.358;2024-03-08T08:25:58;99377.44;;;-2.56;70.81
43663;BME280;74813;56.104;40.358;2024-03-08T08:28:31;99377.84;;;-2.79;71.06
43663;BME280;74813;56.104;40.358;2024-03-08T08:31:03;99380.75;;;-2.74;71.36
43663;BME280;74813;56.104;40.358;2024-03-08T08:33:35;99382.00;;;-2.76;71.68
43663;BME280;74813;56.104;40.358;2024-03-08T08:36:08;99388.22;;;-2.49;71.37
43663;BME280;74813;56.104;40.358;2024-03-08T08:38:40;99378.19;;;-2.16;69.07
43663;BME280;74813;56.104;40.358;2024-03-08T08:41:13;99380.19;;;-1.91;69.03
43663;BME280;74813;56.104;40.358;2024-03-08T08:43:45;99380.44;;;-1.47;67.38
43663;BME280;74813;56.104;40.358;2024-03-08T08:46:18;99373.03;;;-1.20;66.23
43663;BME280;74813;56.104;40.358;2024-03-08T08:48:50;99369.84;;;-1.94;67.87
43663;BME280;74813;56.104;40.358;2024-03-08T08:51:23;99360.00;;;-1.75;68.61
43663;BME280;74813;56.104;40.358;2024-03-08T08:53:55;99363.75;;;-1.31;67.74
43663;BME280;74813;56.104;40.358;2024-03-08T08:56:27;99353.56;;;-1.04;66.44
43663;BME280;74813;56.104;40.358;2024-03-08T08:59:00;99356.22;;;-0.22;63.78
43663;BME280;74813;56.104;40.358;2024-03-08T09:01:32;99349.78;;;-0.28;63.09
43663;BME280;74813;56.104;40.358;2024-03-08T09:04:04;99357.22;;;-0.41;63.79
43663;BME280;74813;56.104;40.358;2024-03-08T09:06:37;99356.78;;;-0.20;63.55
43663;BME280;74813;56.104;40.358;2024-03-08T09:09:09;99350.56;;;-0.20;63.22
43663;BME280;74813;56.104;40.358;2024-03-08T09:11:42;99352.25;;;0.48;61.63
43663;BME280;74813;56.104;40.358;2024-03-08T09:14:14;99351.75;;;0.69;60.57
43663;BME280;74813;56.104;40.358;2024-03-08T09:16:46;99354.38;;;0.27;61.96
43663;BME280;74813;56.104;40.358;2024-03-08T09:19:19;99343.78;;;0.74;60.17
43663;BME280;74813;56.104;40.358;2024-03-08T09:21:51;99353.03;;;-0.19;62.19
43663;BME280;74813;56.104;40.358;2024-03-08T09:24:24;99356.47;;;-0.49;64.38
43663;BME280;74813;56.104;40.358;2024-03-08T09:26:56;99355.38;;;0.14;62.19
43663;BME280;74813;56.104;40.358;2024-03-08T09:29:29;99357.75;;;0.71;60.49
43663;BME280;74813;56.104;40.358;2024-03-08T09:32:02;99366.06;;;0.28;61.34
43663;BME280;74813;56.104;40.358;2024-03-08T09:34:35;99356.13;;;0.40;61.20
43663;BME280;74813;56.104;40.358;2024-03-08T09:37:07;99349.69;;;1.37;59.09
43663;BME280;74813;56.104;40.358;2024-03-08T09:39:39;99362.44;;;0.64;59.91
43663;BME280;74813;56.104;40.358;2024-03-08T09:42:12;99355.31;;;1.23;58.84
43663;BME280;74813;56.104;40.358;2024-03-08T09:44:45;99367.19;;;0.02;61.50
43663;BME280;74813;56.104;40.358;2024-03-08T09:47:18;99358.53;;;0.90;60.43
43663;BME280;74813;56.104;40.358;2024-03-08T09:49:52;99357.94;;;2.41;56.37
43663;BME280;74813;56.104;40.358;2024-03-08T09:52:25;99350.53;;;2.36;55.19
43663;BME280;74813;56.104;40.358;2024-03-08T09:54:58;99363.25;;;1.60;56.71
43663;BME280;74813;56.104;40.358;2024-03-08T09:57:32;99362.94;;;2.73;54.92
43663;BME280;74813;56.104;40.358;2024-03-08T10:00:05;99359.94;;;2.05;54.22
43663;BME280;74813;56.104;40.358;2024-03-08T10:02:38;99360.53;;;2.48;54.95
43663;BME280;74813;56.104;40.358;2024-03-08T10:05:12;99358.25;;;1.10;58.16
43663;BME280;74813;56.104;40.358;2024-03-08T10:07:44;99355.41;;;1.05;58.61
43663;BME280;74813;56.104;40.358;2024-03-08T10:10:17;99350.13;;;2.04;56.58
43663;BME280;74813;56.104;40.358;2024-03-08T10:12:49;99364.16;;;0.77;70.87
43663;BME280;74813;56.104;40.358;2024-03-08T10:15:22;99355.72;;;0.36;70.19
43663;BME280;74813;56.104;40.358;2024-03-08T10:17:55;99349.75;;;1.18;68.28
43663;BME280;74813;56.104;40.358;2024-03-08T10:20:30;99356.16;;;2.06;57.84
43663;BME280;74813;56.104;40.358;2024-03-08T10:23:03;99356.03;;;2.82;54.72
43663;BME280;74813;56.104;40.358;2024-03-08T10:25:36;99355.41;;;3.09;52.60
43663;BME280;74813;56.104;40.358;2024-03-08T10:28:08;99351.44;;;2.02;55.49
43663;BME280;74813;56.104;40.358;2024-03-08T10:30:47;99346.59;;;1.92;56.11
43663;BME280;74813;56.104;40.358;2024-03-08T10:33:19;99342.03;;;2.62;54.40
43663;BME280;74813;56.104;40.358;2024-03-08T10:35:52;99353.81;;;1.51;56.87
43663;BME280;74813;56.104;40.358;2024-03-08T10:38:26;99347.56;;;2.67;54.83
43663;BME280;74813;56.104;40.358;2024-03-08T10:41:00;99338.63;;;2.26;55.09
43663;BME280;74813;56.104;40.358;2024-03-08T10:49:54;99347.38;;;2.85;52.44
43663;BME280;74813;56.104;40.358;2024-03-08T10:52:27;99330.97;;;2.80;52.66
43663;BME280;74813;56.104;40.358;2024-03-08T10:55:01;99330.94;;;3.26;52.62
43663;BME280;74813;56.104;40.358;2024-03-08T10:57:35;99330.97;;;2.23;54.27
43663;BME280;74813;56.104;40.358;2024-03-08T11:00:08;99339.41;;;2.67;54.06
43663;BME280;74813;56.104;40.358;2024-03-08T11:02:44;99332.22;;;2.72;53.51
43663;BME280;74813;56.104;40.358;2024-03-08T11:10:54;99335.94;;;2.14;55.45
43663;BME280;74813;56.104;40.358;2024-03-08T11:13:42;99341.06;;;1.87;55.29
43663;BME280;74813;56.104;40.358;2024-03-08T11:19:06;99347.25;;;0.63;59.64
43663;BME280;74813;56.104;40.358;2024-03-08T11:21:43;99344.09;;;1.08;58.51
43663;BME280;74813;56.104;40.358;2024-03-08T11:24:16;99346.31;;;1.11;58.37
43663;BME280;74813;56.104;40.358;2024-03-08T11:26:48;99337.84;;;1.07;58.87
43663;BME280;74813;56.104;40.358;2024-03-08T11:32:15;99330.81;;;1.65;58.43
43663;BME280;74813;56.104;40.358;2024-03-08T11:34:50;99337.75;;;1.73;57.08
43663;BME280;74813;56.104;40.358;2024-03-08T11:37:23;99321.63;;;1.78;57.77
43663;BME280;74813;56.104;40.358;2024-03-08T11:39:55;99319.25;;;1.70;57.91
43663;BME280;74813;56.104;40.358;2024-03-08T11:42:28;99328.63;;;0.97;59.57
43663;BME280;74813;56.104;40.358;2024-03-08T11:45:00;99333.38;;;1.13;59.90
43663;BME280;74813;56.104;40.358;2024-03-08T11:47:34;99326.69;;;1.51;59.71
43663;BME280;74813;56.104;40.358;2024-03-08T11:50:07;99325.25;;;1.60;61.17
43663;BME280;74813;56.104;40.358;2024-03-08T11:52:39;99323.63;;;1.59;61.03
43663;BME280;74813;56.104;40.358;2024-03-08T11:55:12;99328.28;;;1.05;60.92
43663;BME280;74813;56.104;40.358;2024-03-08T11:57:44;99319.22;;;2.34;58.58
43663;BME280;74813;56.104;40.358;2024-03-08T12:00:19;99325.38;;;1.89;58.56
43663;BME280;74813;56.104;40.358;2024-03-08T12:03:04;99318.16;;;2.92;56.34
43663;BME280;74813;56.104;40.358;2024-03-08T12:05:37;99329.16;;;1.53;58.97
43663;BME280;74813;56.104;40.358;2024-03-08T12:08:10;99325.56;;;3.14;54.45
43663;BME280;74813;56.104;40.358;2024-03-08T12:10:42;99318.63;;;2.03;57.48
43663;BME280;74813;56.104;40.358;2024-03-08T12:13:16;99312.66;;;1.42;58.15
43663;BME280;74813;56.104;40.358;2024-03-08T12:15:48;99314.69;;;2.23;56.95
43663;BME280;74813;56.104;40.358;2024-03-08T12:18:21;99323.03;;;1.34;58.51
43663;BME280;74813;56.104;40.358;2024-03-08T12:21:12;99322.78;;;1.82;58.61
43663;BME280;74813;56.104;40.358;2024-03-08T12:23:44;99322.69;;;1.54;58.75
43663;BME280;74813;56.104;40.358;2024-03-08T12:26:23;99320.88;;;1.36;59.45
43663;BME280;74813;56.104;40.358;2024-03-08T12:31:51;99330.44;;;1.38;60.32
43663;BME280;74813;56.104;40.358;2024-03-08T12:34:24;99326.97;;;0.96;62.06
43663;BME280;74813;56.104;40.358;2024-03-08T12:36:56;99328.44;;;0.38;64.51
43663;BME280;74813;56.104;40.358;2024-03-08T12:39:29;99336.13;;;0.23;66.40
43663;BME280;74813;56.104;40.358;2024-03-08T12:42:02;99323.59;;;1.36;65.38
43663;BME280;74813;56.104;40.358;2024-03-08T12:44:34;99327.78;;;0.84;64.44
43663;BME280;74813;56.104;40.358;2024-03-08T12:47:07;99323.03;;;1.22;63.12
43663;BME280;74813;56.104;40.358;2024-03-08T12:49:39;99324.50;;;0.52;64.90
43663;BME280;74813;56.104;40.358;2024-03-08T12:52:11;99320.81;;;0.77;64.34
43663;BME280;74813;56.104;40.358;2024-03-08T12:54:44;99319.78;;;0.90;64.53
43663;BME280;74813;56.104;40.358;2024-03-08T12:57:16;99323.06;;;0.80;64.39
43663;BME280;74813;56.104;40.358;2024-03-08T12:59:49;99327.78;;;0.84;65.13
43663;BME280;74813;56.104;40.358;2024-03-08T13:02:21;99324.03;;;0.55;65.40
43663;BME280;74813;56.104;40.358;2024-03-08T13:04:53;99337.31;;;0.45;65.99
43663;BME280;74813;56.104;40.358;2024-03-08T13:07:26;99333.00;;;0.98;64.35
43663;BME280;74813;56.104;40.358;2024-03-08T13:09:58;99325.84;;;0.13;67.45
43663;BME280;74813;56.104;40.358;2024-03-08T13:12:31;99340.94;;;0.02;69.31
43663;BME280;74813;56.104;40.358;2024-03-08T13:15:03;99350.44;;;-0.51;73.10
43663;BME280;74813;56.104;40.358;2024-03-08T13:17:36;99334.56;;;-0.22;74.37
43663;BME280;74813;56.104;40.358;2024-03-08T13:20:08;99342.78;;;-0.35;76.94
43663;BME280;74813;56.104;40.358;2024-03-08T13:22:41;99333.09;;;-0.43;79.01
43663;BME280;74813;56.104;40.358;2024-03-08T13:25:13;99350.34;;;-0.19;78.97
43663;BME280;74813;56.104;40.358;2024-03-08T13:27:46;99338.00;;;0.04;77.96
43663;BME280;74813;56.104;40.358;2024-03-08T13:30:19;99345.66;;;-0.30;78.40
43663;BME280;74813;56.104;40.358;2024-03-08T13:32:54;99362.03;;;-0.44;77.20
43663;BME280;74813;56.104;40.358;2024-03-08T13:35:26;99352.28;;;-0.08;75.97
43663;BME280;74813;56.104;40.358;2024-03-08T13:37:59;99348.22;;;0.02;75.49
43663;BME280;74813;56.104;40.358;2024-03-08T13:40:31;99344.94;;;-0.19;74.87
43663;BME280;74813;56.104;40.358;2024-03-08T13:43:04;99349.44;;;-0.13;79.69